Impacts METAR Board
IDs:

KMEM - Memphis Intl, TN, US

Updated at: 1900 UTC 08 Feb 2023
Potential Impact None Slight Moderate High
Time 08/07Z 08/08Z 08/09Z 08/10Z 08/11Z 08/12Z 08/13Z 08/14Z 08/15Z 08/16Z 08/17Z 08/18Z 08/19Z
Temp57 56 56 56 56 56 55 56 57 59 59 63 66
Dewpt52 52 52 52 52 52 53 54 55 56 58 62 62
Altim30.17 30.16 30.16 30.16 30.15 30.15 30.14 30.13 30.13 30.13 30.08 30.04 30.01
VIS10 10 9 8 8 7 4 2.5 5 6 6 6 10
CIG24 20 19 15 11 8 7 4 6 6 6 17 29
CoverOVCBKNOVCOVCOVCOVCOVCOVCOVCOVCOVCBKNBKN
FltCatMVFRMVFRMVFRMVFRMVFRIFRIFRLIFRIFRIFRIFRMVFRMVFR
WX-------------DZ BRBRBRBR-RA BRBR--
WDir604060708070801008080100130170
WSpd6 7 7 7 6 6 8 9 10 9 9 10 10
WGst-- -- -- -- -- -- -- -- 18 -- -- -- --
Raw hourly METARs
KMEM 080654Z 06006KT 10SM BKN024 OVC037 14/11 A3017 RMK AO2 RAB15E24 SLP216 P0000 T01390111 $
KMEM 080754Z 04007KT 10SM BKN020 BKN035 13/11 A3016 RMK AO2 SLP211 T01330111 $
KMEM 080854Z 06007KT 9SM OVC019 13/11 A3016 RMK AO2 SLP211 60000 T01330111 56006 $
KMEM 080954Z 07007KT 8SM OVC015 13/11 A3016 RMK AO2 SLP209 T01330111 $
KMEM 081054Z 08006KT 8SM OVC011 13/11 A3015 RMK AO2 SLP208 T01330111 $
KMEM 081154Z 07006KT 7SM OVC008 13/11 A3015 RMK AO2 SLP206 60000 T01330111 10139 20128 57005 $
KMEM 081254Z 08008KT 4SM -DZ BR OVC007 13/12 A3014 RMK AO2 DZB43 SLP205 P0000 T01280117
KMEM 081354Z 10009KT 2 1/2SM BR OVC004 13/12 A3013 RMK AO2 SFC VIS 3 DZE15 SLP203 P0000 T01330122
KMEM 081457Z 08010G18KT 5SM BR OVC006 14/13 A3013 RMK AO2 T01390128
KMEM 081554Z 08009KT 6SM BR OVC006 15/13 A3013 RMK AO2 SLP200 T01500133
KMEM 081654Z 10009KT 6SM -RA BR BKN006 OVC013 15/14 A3008 RMK AO2 RAB19E31B53 SLP186 P0000 T01500144
KMEM 081803Z 13010KT 6SM BR SCT006 BKN017 BKN100 17/17 A3004 RMK AO2 RAE1757 P0000 T01720167
KMEM 081854Z 17010KT 10SM FEW013 BKN029 BKN100 19/17 A3001 RMK AO2 RAE1757 SLP159 P0000 T01890167



Page loaded:  19:44 UTC  |   11:44 AM Pacific  |   12:44 PM Mountain  |   01:44 PM Central  |   02:44 PM Eastern

 

ADVISORIES

FORECASTS

FORECASTS

OBSERVATIONS

USER TOOLS

ABOUT US